createdAt,value
2023-05-04T00:00:04.898Z,96.35
2023-05-04T00:01:04.744Z,96.56
2023-05-04T00:02:04.700Z,96.56
2023-05-04T00:03:04.885Z,96.50
2023-05-04T00:04:04.834Z,96.60
2023-05-04T00:05:04.653Z,96.77
2023-05-04T00:06:04.636Z,96.97
2023-05-04T00:07:04.622Z,97.22
2023-05-04T00:08:04.618Z,96.87
2023-05-04T00:09:04.644Z,96.50
2023-05-04T00:10:04.843Z,95.78
2023-05-04T00:11:04.570Z,95.27
2023-05-04T00:12:04.555Z,95.57
2023-05-04T00:13:04.649Z,96.40
2023-05-04T00:14:04.578Z,96.70
2023-05-04T00:15:04.537Z,96.40
2023-05-04T00:16:04.599Z,96.19
2023-05-04T00:17:04.520Z,96.91
2023-05-04T00:18:04.617Z,97.02
2023-05-04T00:19:04.469Z,96.55
2023-05-04T00:20:04.706Z,96.50
2023-05-04T00:21:04.542Z,96.40
2023-05-04T00:22:04.429Z,96.95
2023-05-04T00:23:04.418Z,97.27
2023-05-04T00:24:04.400Z,96.81
2023-05-04T00:25:04.381Z,96.75
2023-05-04T00:26:04.371Z,96.95
2023-05-04T00:27:04.613Z,96.75
2023-05-04T00:28:04.345Z,96.34
2023-05-04T00:29:04.335Z,96.03
2023-05-04T00:30:04.506Z,96.23
2023-05-04T00:31:04.307Z,96.44
2023-05-04T00:32:04.614Z,96.44
2023-05-04T00:33:04.345Z,96.55
2023-05-04T00:34:04.255Z,96.75
2023-05-04T00:35:04.250Z,96.80
2023-05-04T00:36:04.240Z,96.75
2023-05-04T00:37:04.221Z,97.06
2023-05-04T00:38:04.208Z,96.95
2023-05-04T00:39:04.200Z,97.27
2023-05-04T00:40:04.390Z,97.47
2023-05-04T00:41:04.182Z,97.52
2023-05-04T00:42:04.210Z,97.67
2023-05-04T00:43:04.144Z,97.78
2023-05-04T00:44:04.130Z,97.88
2023-05-04T00:45:04.108Z,97.92
2023-05-04T00:46:04.098Z,97.82
2023-05-04T00:47:04.244Z,97.52
2023-05-04T00:48:04.126Z,98.24
2023-05-04T00:49:04.088Z,98.24
2023-05-04T00:50:04.397Z,98.33
2023-05-04T00:51:04.039Z,98.24
2023-05-04T00:52:04.020Z,98.33
2023-05-04T00:53:04.022Z,98.44
2023-05-04T00:54:03.997Z,98.13
2023-05-04T00:55:03.983Z,98.07
2023-05-04T00:56:03.981Z,97.52
2023-05-04T00:57:03.964Z,97.52
2023-05-04T00:58:03.937Z,97.62
2023-05-04T00:59:03.923Z,97.92
2023-05-04T01:00:06.320Z,97.62
2023-05-04T01:01:04.752Z,97.62
2023-05-04T01:02:03.881Z,97.92
2023-05-04T01:03:03.970Z,98.18
2023-05-04T01:04:03.941Z,97.87
2023-05-04T01:05:03.875Z,97.97
2023-05-04T01:06:03.828Z,98.18
2023-05-04T01:07:03.818Z,98.28
2023-05-04T01:08:03.823Z,98.18
2023-05-04T01:09:03.791Z,98.28
2023-05-04T01:10:04.065Z,98.18
2023-05-04T01:11:03.757Z,98.18
2023-05-04T01:12:04.043Z,98.07
2023-05-04T01:13:03.807Z,98.22
2023-05-04T01:14:03.717Z,98.38
2023-05-04T01:15:03.716Z,98.49
2023-05-04T01:16:03.695Z,98.49
2023-05-04T01:17:03.807Z,98.38
2023-05-04T01:18:03.685Z,98.28
2023-05-04T01:19:03.649Z,98.43
2023-05-04T01:20:04.296Z,98.49
2023-05-04T01:21:03.652Z,98.53
2023-05-04T01:22:03.610Z,98.59
2023-05-04T01:23:03.593Z,98.84
2023-05-04T01:24:03.587Z,99.15
2023-05-04T01:25:03.574Z,99.56
2023-05-04T01:26:03.550Z,99.51
2023-05-04T01:27:03.536Z,99.46
2023-05-04T01:28:03.525Z,99.35
2023-05-04T01:29:03.512Z,99.05
2023-05-04T01:30:03.811Z,98.84
2023-05-04T01:31:03.498Z,98.74
2023-05-04T01:32:03.476Z,98.94
2023-05-04T01:33:03.490Z,99.35
2023-05-04T01:34:03.458Z,99.40
2023-05-04T01:35:03.437Z,99.35
2023-05-04T01:36:03.430Z,99.30
2023-05-04T01:37:03.431Z,98.94
2023-05-04T01:38:03.395Z,98.74
2023-05-04T01:39:03.405Z,98.94
2023-05-04T01:40:03.643Z,99.15
2023-05-04T01:41:03.341Z,98.99
2023-05-04T01:42:03.336Z,98.68
2023-05-04T01:43:03.330Z,98.58
2023-05-04T01:44:03.314Z,98.58
2023-05-04T01:45:03.320Z,98.16
2023-05-04T01:46:03.311Z,98.16
2023-05-04T01:47:03.280Z,98.06
2023-05-04T01:48:03.291Z,98.06
2023-05-04T01:49:03.237Z,98.47
2023-05-04T01:50:03.498Z,98.58
2023-05-04T01:51:03.224Z,98.72
2023-05-04T01:52:03.196Z,98.93
2023-05-04T01:53:03.199Z,99.24
2023-05-04T01:54:03.173Z,99.34
2023-05-04T01:55:03.152Z,99.44
2023-05-04T01:56:03.145Z,99.55
2023-05-04T01:57:03.127Z,99.55
2023-05-04T01:58:03.116Z,99.76
2023-05-04T01:59:03.098Z,99.86
2023-05-04T02:00:03.294Z,99.76
2023-05-04T02:01:03.076Z,99.86
2023-05-04T02:02:03.155Z,99.76
2023-05-04T02:03:03.155Z,99.65
2023-05-04T02:04:03.173Z,99.44
2023-05-04T02:05:03.016Z,99.34
2023-05-04T02:06:03.018Z,99.34
2023-05-04T02:07:02.989Z,99.44
2023-05-04T02:08:02.973Z,99.65
2023-05-04T02:09:02.988Z,99.65
2023-05-04T02:10:03.126Z,99.86
2023-05-04T02:11:02.938Z,99.99
2023-05-04T02:12:02.922Z,99.99
2023-05-04T02:13:02.933Z,99.99
2023-05-04T02:14:02.983Z,99.99
2023-05-04T02:15:03.085Z,99.99
2023-05-04T02:16:02.928Z,99.99
2023-05-04T02:17:02.851Z,99.99
2023-05-04T02:18:02.857Z,99.99
2023-05-04T02:19:02.830Z,99.99
2023-05-04T02:20:03.038Z,99.99
2023-05-04T02:21:02.806Z,99.99
2023-05-04T02:22:02.789Z,99.99
2023-05-04T02:23:02.777Z,99.99
2023-05-04T02:24:02.759Z,99.99
2023-05-04T02:25:02.767Z,99.80
2023-05-04T02:26:02.747Z,99.80
2023-05-04T02:27:02.725Z,99.80
2023-05-04T02:28:02.712Z,99.80
2023-05-04T02:29:02.710Z,99.70
2023-05-04T02:30:03.020Z,99.74
2023-05-04T02:31:02.661Z,99.70
2023-05-04T02:32:02.693Z,99.95
2023-05-04T02:33:02.711Z,99.99
2023-05-04T02:34:02.628Z,99.99
2023-05-04T02:35:02.603Z,99.99
2023-05-04T02:36:02.602Z,99.99
2023-05-04T02:37:03.271Z,99.95
2023-05-04T02:38:02.571Z,99.95
2023-05-04T02:39:02.658Z,99.70
2023-05-04T02:40:02.773Z,99.64
2023-05-04T02:41:02.733Z,99.74
2023-05-04T02:42:02.516Z,99.85
2023-05-04T02:43:02.510Z,99.95
2023-05-04T02:44:02.507Z,99.99
2023-05-04T02:45:02.827Z,99.99
2023-05-04T02:46:02.554Z,99.99
2023-05-04T02:47:02.452Z,99.99
2023-05-04T02:48:02.775Z,99.99
2023-05-04T02:49:02.423Z,99.99
2023-05-04T02:50:02.651Z,99.99
2023-05-04T02:51:02.394Z,99.99
2023-05-04T02:52:02.401Z,99.99
2023-05-04T02:53:02.377Z,99.99
2023-05-04T02:54:02.357Z,99.99
2023-05-04T02:55:02.358Z,99.99
2023-05-04T02:56:02.327Z,99.99
2023-05-04T02:57:02.332Z,99.99
2023-05-04T02:58:02.313Z,99.99
2023-05-04T02:59:02.295Z,99.99
2023-05-04T03:00:02.426Z,99.99
2023-05-04T03:01:02.302Z,99.99
2023-05-04T03:02:02.247Z,99.99
2023-05-04T03:03:02.284Z,99.99
2023-05-04T03:04:02.252Z,99.99
2023-05-04T03:05:02.215Z,99.99
2023-05-04T03:06:02.198Z,99.99
2023-05-04T03:07:02.184Z,99.99
2023-05-04T03:08:02.163Z,99.99
2023-05-04T03:09:02.147Z,99.99
2023-05-04T03:10:02.134Z,99.99
2023-05-04T03:11:02.122Z,99.99
2023-05-04T03:12:02.102Z,99.99
2023-05-04T03:13:02.168Z,99.99
2023-05-04T03:14:02.088Z,99.99
2023-05-04T03:15:02.070Z,99.99
2023-05-04T03:16:02.058Z,99.99
2023-05-04T03:17:02.066Z,99.99
2023-05-04T03:18:02.081Z,99.99
2023-05-04T03:19:02.011Z,99.99
2023-05-04T03:20:02.164Z,99.99
2023-05-04T03:21:01.993Z,99.99
2023-05-04T03:22:01.977Z,99.99
2023-05-04T03:23:01.962Z,99.99
2023-05-04T03:24:01.950Z,99.99
2023-05-04T03:25:01.954Z,99.99
2023-05-04T03:26:01.915Z,99.99
2023-05-04T03:27:01.901Z,99.99
2023-05-04T03:28:01.888Z,99.99
2023-05-04T03:29:01.905Z,99.99
2023-05-04T03:30:01.953Z,99.99
2023-05-04T03:31:01.857Z,99.99
2023-05-04T03:32:01.862Z,99.99
2023-05-04T03:33:01.876Z,99.99
2023-05-04T03:34:01.814Z,99.99
2023-05-04T03:35:03.841Z,99.99
2023-05-04T03:36:01.784Z,99.99
2023-05-04T03:37:01.759Z,99.99
2023-05-04T03:38:01.762Z,99.99
2023-05-04T03:39:01.729Z,99.99
2023-05-04T03:40:01.746Z,99.99
2023-05-04T03:41:01.700Z,99.99
2023-05-04T03:42:01.703Z,99.99
2023-05-04T03:43:01.685Z,99.99
2023-05-04T03:44:01.675Z,99.99
2023-05-04T03:45:03.836Z,99.99
2023-05-04T03:46:01.755Z,99.99
2023-05-04T03:47:01.634Z,99.99
2023-05-04T03:48:01.632Z,99.99
2023-05-04T03:49:01.600Z,99.99
2023-05-04T03:50:01.628Z,99.99
2023-05-04T03:51:01.581Z,99.99
2023-05-04T03:52:01.552Z,99.99
2023-05-04T03:53:01.544Z,99.99
2023-05-04T03:54:01.520Z,99.99
2023-05-04T03:55:01.529Z,99.99
2023-05-04T03:56:01.514Z,99.99
2023-05-04T03:57:01.482Z,99.99
2023-05-04T03:58:01.467Z,99.99
2023-05-04T03:59:01.458Z,99.99
2023-05-04T04:00:01.494Z,99.99
2023-05-04T04:01:01.457Z,99.99
2023-05-04T04:02:01.459Z,99.99
2023-05-04T04:03:01.497Z,99.99
2023-05-04T04:04:01.575Z,99.99
2023-05-04T04:05:01.391Z,99.99
2023-05-04T04:06:01.357Z,99.99
2023-05-04T04:07:01.340Z,99.99
2023-05-04T04:08:01.337Z,99.99
2023-05-04T04:09:01.317Z,99.99
2023-05-04T04:10:01.296Z,99.99
2023-05-04T04:11:01.315Z,99.99
2023-05-04T04:12:01.274Z,99.99
2023-05-04T04:13:01.384Z,99.99
2023-05-04T04:14:01.242Z,99.99
2023-05-04T04:15:01.247Z,99.99
2023-05-04T04:16:01.267Z,99.99
2023-05-04T04:17:01.229Z,99.99
2023-05-04T04:18:01.231Z,99.99
2023-05-04T04:19:01.182Z,99.99
2023-05-04T04:20:01.158Z,99.99
2023-05-04T04:21:01.153Z,99.99
2023-05-04T04:22:01.135Z,99.99
2023-05-04T04:23:01.129Z,99.99
2023-05-04T04:24:01.118Z,99.99
2023-05-04T04:25:01.403Z,99.99
2023-05-04T04:26:01.095Z,99.99
2023-05-04T04:27:01.070Z,99.99
2023-05-04T04:28:01.060Z,99.99
2023-05-04T04:29:01.044Z,99.99
2023-05-04T04:30:01.034Z,99.99
2023-05-04T04:31:01.045Z,99.99
2023-05-04T04:32:01.007Z,99.99
2023-05-04T04:33:01.038Z,99.99
2023-05-04T04:34:01.003Z,99.99
2023-05-04T04:35:00.959Z,99.99
2023-05-04T04:36:00.946Z,99.99
2023-05-04T04:37:00.929Z,99.99
2023-05-04T04:38:03.441Z,99.99
2023-05-04T04:39:00.915Z,99.99
2023-05-04T04:40:00.923Z,99.99
2023-05-04T04:41:00.896Z,99.99
2023-05-04T04:42:00.866Z,99.99
2023-05-04T04:43:00.867Z,99.99
2023-05-04T04:44:00.838Z,99.99
2023-05-04T04:45:00.833Z,99.99
2023-05-04T04:46:00.820Z,99.99
2023-05-04T04:47:00.840Z,99.99
2023-05-04T04:48:00.838Z,99.99
2023-05-04T04:49:00.787Z,99.99
2023-05-04T04:50:00.765Z,99.99
2023-05-04T04:51:00.734Z,99.99
2023-05-04T04:52:00.721Z,99.99
2023-05-04T04:53:00.709Z,99.99
2023-05-04T04:54:00.698Z,99.99
2023-05-04T04:55:00.682Z,99.99
2023-05-04T04:56:00.669Z,99.99
2023-05-04T04:57:00.658Z,99.99
2023-05-04T04:58:00.658Z,99.99
2023-05-04T04:59:00.630Z,99.99
2023-05-04T05:00:00.616Z,99.99
2023-05-04T05:01:00.703Z,99.99
2023-05-04T05:02:00.665Z,99.99
2023-05-04T05:03:00.613Z,99.99
2023-05-04T05:04:00.557Z,99.99
2023-05-04T05:05:00.628Z,99.99
2023-05-04T05:06:00.531Z,99.99
2023-05-04T05:07:00.527Z,99.99
2023-05-04T05:08:00.519Z,99.99
2023-05-04T05:09:00.502Z,99.99
2023-05-04T05:10:00.485Z,99.99
2023-05-04T05:11:00.484Z,99.64
2023-05-04T05:12:00.457Z,99.33
2023-05-04T05:13:00.509Z,99.23
2023-05-04T05:14:00.427Z,99.02
2023-05-04T05:15:00.415Z,98.88
2023-05-04T05:16:00.411Z,98.88
2023-05-04T05:17:00.552Z,98.97
2023-05-04T05:18:00.434Z,98.72
2023-05-04T05:19:00.353Z,98.52
2023-05-04T05:20:00.338Z,98.21
2023-05-04T05:21:00.358Z,98.32
2023-05-04T05:22:00.323Z,98.06
2023-05-04T05:23:00.329Z,98.06
2023-05-04T05:24:00.286Z,98.16
2023-05-04T05:25:00.289Z,97.86
2023-05-04T05:26:02.636Z,97.71
2023-05-04T05:27:00.263Z,97.91
2023-05-04T05:28:00.238Z,97.81
2023-05-04T05:29:00.226Z,98.02
2023-05-04T05:30:00.369Z,97.87
2023-05-04T05:31:00.233Z,97.66
2023-05-04T05:32:00.178Z,97.31
2023-05-04T05:33:00.247Z,96.59
2023-05-04T05:34:00.148Z,96.44
2023-05-04T05:35:00.442Z,96.90
2023-05-04T05:36:00.138Z,96.85
2023-05-04T05:37:00.208Z,96.34
2023-05-04T05:38:00.150Z,95.98
2023-05-04T05:39:00.115Z,95.32
2023-05-04T05:40:00.096Z,94.30
2023-05-04T05:41:00.055Z,94.15
2023-05-04T05:42:00.041Z,93.13
2023-05-04T05:43:00.033Z,93.13
2023-05-04T05:44:00.022Z,93.13
2023-05-04T05:45:00.056Z,92.93
2023-05-04T05:46:00.047Z,92.88
2023-05-04T05:46:59.983Z,93.08
2023-05-04T05:47:59.995Z,92.68
2023-05-04T05:48:59.959Z,91.71
2023-05-04T05:49:59.992Z,91.09
2023-05-04T05:50:59.925Z,91.09
2023-05-04T05:51:59.909Z,91.61
2023-05-04T05:52:59.921Z,91.50
2023-05-04T05:53:59.887Z,91.36
2023-05-04T05:55:02.446Z,90.64
2023-05-04T05:55:59.852Z,90.44
2023-05-04T05:56:59.840Z,90.30
2023-05-04T05:57:59.977Z,90.15
2023-05-04T05:58:59.809Z,88.98
2023-05-04T05:59:59.812Z,86.94
2023-05-04T06:00:59.790Z,87.14
2023-05-04T06:01:59.782Z,87.00
2023-05-04T06:03:00.072Z,86.90
2023-05-04T06:03:59.925Z,87.37
2023-05-04T06:04:59.879Z,86.51
2023-05-04T06:05:59.916Z,85.59
2023-05-04T06:06:59.707Z,85.24
2023-05-04T06:07:59.942Z,84.59
2023-05-04T06:08:59.727Z,82.75
2023-05-04T06:09:59.674Z,81.43
2023-05-04T06:10:59.909Z,81.67
2023-05-04T06:11:59.631Z,82.39
2023-05-04T06:12:59.676Z,82.35
2023-05-04T06:13:59.611Z,80.71
2023-05-04T06:14:59.597Z,81.02
2023-05-04T06:15:59.625Z,81.63
2023-05-04T06:16:59.572Z,80.78
2023-05-04T06:17:59.589Z,80.68
2023-05-04T06:18:59.559Z,80.84
2023-05-04T06:19:59.522Z,80.43
2023-05-04T06:20:59.674Z,79.52
2023-05-04T06:21:59.497Z,80.74
2023-05-04T06:22:59.490Z,80.60
2023-05-04T06:23:59.489Z,79.64
2023-05-04T06:25:03.729Z,78.12
2023-05-04T06:26:00.468Z,78.02
2023-05-04T06:26:59.462Z,78.12
2023-05-04T06:27:59.427Z,77.78
2023-05-04T06:28:59.415Z,78.08
2023-05-04T06:29:59.393Z,77.03
2023-05-04T06:30:59.380Z,77.03
2023-05-04T06:31:59.422Z,75.40
2023-05-04T06:32:59.393Z,76.18
2023-05-04T06:33:59.338Z,77.40
2023-05-04T06:34:59.318Z,75.94
2023-05-04T06:35:59.322Z,75.23
2023-05-04T06:36:59.292Z,74.88
2023-05-04T06:37:59.318Z,75.19
2023-05-04T06:38:59.260Z,73.33
2023-05-04T06:39:59.268Z,73.63
2023-05-04T06:40:59.341Z,74.01
2023-05-04T06:41:59.226Z,74.62
2023-05-04T06:42:59.214Z,73.66
2023-05-04T06:43:59.215Z,72.45
2023-05-04T06:44:59.185Z,71.23
2023-05-04T06:45:59.213Z,72.25
2023-05-04T06:46:59.158Z,72.34
2023-05-04T06:47:59.177Z,71.03
2023-05-04T06:48:59.153Z,71.03
2023-05-04T06:49:59.126Z,71.80
2023-05-04T06:51:01.463Z,71.91
2023-05-04T06:51:59.091Z,70.65
2023-05-04T06:52:59.083Z,71.64
2023-05-04T06:53:59.066Z,71.03
2023-05-04T06:54:59.056Z,69.81
2023-05-04T06:55:59.041Z,70.62
2023-05-04T06:56:59.058Z,70.79
2023-05-04T06:57:59.008Z,71.09
2023-05-04T06:58:59.001Z,69.92
2023-05-04T06:59:58.980Z,69.81
2023-05-04T07:00:58.987Z,69.07
2023-05-04T07:01:58.976Z,69.85
2023-05-04T07:02:58.989Z,68.00
2023-05-04T07:03:58.962Z,68.60
2023-05-04T07:04:58.925Z,68.00
2023-05-04T07:05:58.904Z,68.17
2023-05-04T07:06:58.894Z,67.33
2023-05-04T07:07:58.894Z,66.62
2023-05-04T07:08:58.879Z,65.51
2023-05-04T07:09:58.855Z,67.13
2023-05-04T07:10:58.842Z,65.01
2023-05-04T07:11:58.825Z,64.20
2023-05-04T07:12:58.869Z,65.71
2023-05-04T07:13:58.795Z,65.41
2023-05-04T07:14:58.778Z,65.88
2023-05-04T07:15:58.825Z,67.10
2023-05-04T07:16:58.762Z,65.75
2023-05-04T07:17:58.833Z,65.05
2023-05-04T07:18:58.742Z,65.42
2023-05-04T07:19:58.719Z,63.27
2023-05-04T07:21:10.823Z,63.87
2023-05-04T07:21:59.717Z,63.75
2023-05-04T07:22:58.685Z,63.65
2023-05-04T07:23:58.671Z,62.61
2023-05-04T07:24:58.649Z,61.77
2023-05-04T07:25:58.631Z,63.96
2023-05-04T07:26:58.619Z,61.91
2023-05-04T07:27:58.614Z,61.61
2023-05-04T07:28:58.678Z,60.78
2023-05-04T07:29:58.597Z,60.48
2023-05-04T07:30:58.573Z,60.08
2023-05-04T07:31:58.615Z,60.28
2023-05-04T07:32:58.596Z,60.55
2023-05-04T07:33:58.542Z,60.75
2023-05-04T07:34:58.528Z,60.12
2023-05-04T07:35:58.501Z,60.10
2023-05-04T07:36:58.493Z,57.59
2023-05-04T07:37:58.478Z,57.35
2023-05-04T07:38:58.463Z,55.52
2023-05-04T07:39:58.446Z,57.80
2023-05-04T07:40:58.437Z,58.00
2023-05-04T07:41:58.430Z,57.68
2023-05-04T07:42:58.432Z,55.87
2023-05-04T07:43:58.396Z,56.57
2023-05-04T07:44:58.433Z,55.55
2023-05-04T07:45:58.387Z,54.74
2023-05-04T07:46:58.380Z,53.82
2023-05-04T07:47:58.377Z,51.49
2023-05-04T07:48:58.331Z,52.69
2023-05-04T07:49:58.321Z,53.97
2023-05-04T07:50:58.319Z,56.37
2023-05-04T07:51:58.300Z,54.35
2023-05-04T07:52:58.278Z,52.84
2023-05-04T07:53:58.275Z,55.12
2023-05-04T07:54:58.259Z,54.49
2023-05-04T07:55:58.553Z,53.77
2023-05-04T07:56:58.224Z,50.02
2023-05-04T07:57:58.216Z,53.12
2023-05-04T07:58:58.203Z,52.39
2023-05-04T07:59:58.192Z,51.20
2023-05-04T08:00:58.316Z,51.87
2023-05-04T08:01:58.183Z,51.37
2023-05-04T08:02:58.224Z,49.87
2023-05-04T08:03:58.164Z,49.77
2023-05-04T08:04:58.125Z,50.09
2023-05-04T08:05:58.112Z,50.49
2023-05-04T08:06:58.100Z,49.57
2023-05-04T08:07:58.345Z,50.15
2023-05-04T08:08:58.069Z,49.32
2023-05-04T08:09:58.060Z,50.42
2023-05-04T08:11:11.699Z,49.77
2023-05-04T08:11:59.058Z,47.40
2023-05-04T08:12:58.051Z,47.71
2023-05-04T08:13:58.019Z,48.40
2023-05-04T08:14:57.991Z,47.40
2023-05-04T08:15:57.988Z,47.88
2023-05-04T08:16:57.999Z,48.58
2023-05-04T08:17:57.975Z,46.88
2023-05-04T08:18:57.956Z,47.45
2023-05-04T08:19:58.087Z,47.06
2023-05-04T08:20:57.914Z,46.54
2023-05-04T08:21:57.907Z,47.14
2023-05-04T08:22:57.889Z,45.82
2023-05-04T08:23:57.883Z,47.03
2023-05-04T08:24:57.869Z,45.84
2023-05-04T08:25:58.067Z,45.92
2023-05-04T08:27:07.331Z,45.42
2023-05-04T08:27:58.860Z,45.34
2023-05-04T08:28:57.824Z,46.36
2023-05-04T08:29:57.828Z,45.64
2023-05-04T08:30:57.799Z,44.15
2023-05-04T08:31:57.878Z,45.66
2023-05-04T08:32:57.955Z,45.86
2023-05-04T08:33:57.751Z,45.14
2023-05-04T08:34:57.852Z,44.94
2023-05-04T08:35:57.730Z,44.49
2023-05-04T08:36:57.739Z,45.76
2023-05-04T08:37:57.743Z,46.44
2023-05-04T08:38:57.694Z,45.74
2023-05-04T08:39:57.690Z,44.12
2023-05-04T08:40:57.679Z,44.70
2023-05-04T08:41:57.660Z,43.23
2023-05-04T08:42:57.647Z,42.87
2023-05-04T08:43:57.636Z,44.27
2023-05-04T08:44:57.636Z,46.24
2023-05-04T08:45:57.683Z,45.52
2023-05-04T08:46:57.598Z,45.37
2023-05-04T08:47:57.616Z,44.46
2023-05-04T08:48:57.681Z,43.64
2023-05-04T08:49:57.568Z,42.23
2023-05-04T08:50:57.545Z,42.65
2023-05-04T08:51:57.529Z,42.94
2023-05-04T08:52:57.521Z,42.53
2023-05-04T08:53:57.516Z,42.83
2023-05-04T08:54:57.511Z,40.94
2023-05-04T08:55:57.490Z,42.25
2023-05-04T08:56:57.467Z,41.93
2023-05-04T08:57:57.453Z,40.76
2023-05-04T08:58:57.437Z,41.16
2023-05-04T08:59:57.424Z,42.83
2023-05-04T09:00:57.510Z,41.83
2023-05-04T09:01:57.467Z,42.01
2023-05-04T09:02:57.448Z,41.30
2023-05-04T09:03:57.532Z,40.42
2023-05-04T09:04:57.399Z,41.91
2023-05-04T09:05:57.359Z,41.67
2023-05-04T09:06:57.340Z,40.56
2023-05-04T09:07:57.324Z,41.53
2023-05-04T09:08:57.316Z,39.28
2023-05-04T09:09:57.307Z,39.87
2023-05-04T09:10:57.292Z,38.58
2023-05-04T09:11:57.295Z,39.37
2023-05-04T09:12:57.343Z,39.69
2023-05-04T09:13:57.255Z,40.20
2023-05-04T09:14:57.235Z,39.73
2023-05-04T09:15:57.227Z,40.84
2023-05-04T09:16:57.220Z,40.94
2023-05-04T09:17:58.042Z,41.71
2023-05-04T09:18:57.183Z,40.50
2023-05-04T09:19:57.176Z,41.06
2023-05-04T09:20:57.187Z,39.85
2023-05-04T09:21:57.157Z,41.22
2023-05-04T09:22:57.444Z,39.71
2023-05-04T09:23:57.170Z,38.13
2023-05-04T09:24:57.123Z,39.53
2023-05-04T09:25:57.104Z,37.87
2023-05-04T09:26:57.090Z,38.94
2023-05-04T09:27:57.227Z,38.46
2023-05-04T09:28:57.431Z,39.04
2023-05-04T09:29:57.058Z,39.22
2023-05-04T09:30:57.065Z,39.61
2023-05-04T09:31:57.033Z,38.92
2023-05-04T09:32:57.064Z,38.94
2023-05-04T09:33:57.001Z,40.01
2023-05-04T09:34:57.004Z,39.00
2023-05-04T09:35:56.978Z,38.11
2023-05-04T09:36:57.011Z,38.42
2023-05-04T09:37:56.949Z,38.44
2023-05-04T09:38:56.938Z,38.07
2023-05-04T09:39:56.952Z,38.28
2023-05-04T09:40:56.913Z,39.43
2023-05-04T09:41:56.957Z,39.51
2023-05-04T09:42:56.911Z,37.40
2023-05-04T09:43:56.881Z,38.07
2023-05-04T09:44:56.866Z,37.85
2023-05-04T09:45:56.859Z,37.72
2023-05-04T09:46:56.836Z,37.30
2023-05-04T09:47:56.844Z,35.91
2023-05-04T09:48:56.920Z,37.49
2023-05-04T09:49:56.822Z,37.09
2023-05-04T09:50:56.798Z,37.11
2023-05-04T09:51:56.780Z,36.14
2023-05-04T09:52:56.813Z,35.94
2023-05-04T09:53:56.756Z,37.32
2023-05-04T09:54:56.736Z,37.11
2023-05-04T09:55:56.730Z,35.45
2023-05-04T09:56:56.716Z,36.73
2023-05-04T09:57:56.729Z,37.62
2023-05-04T09:58:56.695Z,36.46
2023-05-04T09:59:56.680Z,36.16
2023-05-04T10:00:56.679Z,37.24
2023-05-04T10:01:58.610Z,36.52
2023-05-04T10:02:56.656Z,36.30
2023-05-04T10:03:56.633Z,36.48
2023-05-04T10:04:56.726Z,34.58
2023-05-04T10:05:56.628Z,33.80
2023-05-04T10:06:56.593Z,34.27
2023-05-04T10:07:56.585Z,37.05
2023-05-04T10:08:56.592Z,36.02
2023-05-04T10:09:56.562Z,35.00
2023-05-04T10:10:56.542Z,34.12
2023-05-04T10:11:56.534Z,34.28
2023-05-04T10:12:56.558Z,33.22
2023-05-04T10:13:56.512Z,32.52
2023-05-04T10:14:56.498Z,34.13
2023-05-04T10:15:56.484Z,34.53
2023-05-04T10:16:56.474Z,34.41
2023-05-04T10:17:56.497Z,34.23
2023-05-04T10:18:56.447Z,33.39
2023-05-04T10:19:56.445Z,33.79
2023-05-04T10:20:56.426Z,33.67
2023-05-04T10:21:56.425Z,34.13
2023-05-04T10:22:56.400Z,35.28
2023-05-04T10:23:56.393Z,33.04
2023-05-04T10:24:56.404Z,34.15
2023-05-04T10:25:56.365Z,34.53
2023-05-04T10:26:56.359Z,33.23
2023-05-04T10:27:56.363Z,33.62
2023-05-04T10:28:56.327Z,33.06
2023-05-04T10:29:56.315Z,34.12
2023-05-04T10:30:56.300Z,35.28
2023-05-04T10:31:56.383Z,35.28
2023-05-04T10:32:56.560Z,34.48
2023-05-04T10:33:56.281Z,34.08
2023-05-04T10:34:57.324Z,33.70
2023-05-04T10:35:56.246Z,32.80
2023-05-04T10:36:56.233Z,33.39
2023-05-04T10:37:56.226Z,35.27
2023-05-04T10:38:56.209Z,34.15
2023-05-04T10:39:56.220Z,33.54
2023-05-04T10:40:56.234Z,32.52
2023-05-04T10:41:56.180Z,30.94
2023-05-04T10:42:56.160Z,30.83
2023-05-04T10:43:56.151Z,30.72
2023-05-04T10:44:56.141Z,31.21
2023-05-04T10:45:56.198Z,31.03
2023-05-04T10:46:57.767Z,31.83
2023-05-04T10:47:56.420Z,32.11
2023-05-04T10:48:56.090Z,31.72
2023-05-04T10:49:56.087Z,31.45
2023-05-04T10:50:56.069Z,31.65
2023-05-04T10:51:56.052Z,31.57
2023-05-04T10:52:57.583Z,31.76
2023-05-04T10:53:56.031Z,32.77
2023-05-04T10:54:56.021Z,33.26
2023-05-04T10:55:56.008Z,32.97
2023-05-04T10:56:56.078Z,33.44
2023-05-04T10:57:56.007Z,32.65
2023-05-04T10:58:55.983Z,31.86
2023-05-04T10:59:55.953Z,32.85
2023-05-04T11:00:56.009Z,32.37
2023-05-04T11:01:55.933Z,32.19
2023-05-04T11:02:56.033Z,34.95
2023-05-04T11:03:55.983Z,34.94
2023-05-04T11:04:55.894Z,33.15
2023-05-04T11:05:55.884Z,34.61
2023-05-04T11:06:55.885Z,33.11
2023-05-04T11:07:55.861Z,30.66
2023-05-04T11:08:55.855Z,32.45
2023-05-04T11:09:55.842Z,31.09
2023-05-04T11:10:55.833Z,32.98
2023-05-04T11:11:55.820Z,32.40
2023-05-04T11:12:55.929Z,33.20
2023-05-04T11:13:55.797Z,33.59
2023-05-04T11:14:55.785Z,33.77
2023-05-04T11:15:55.780Z,34.76
2023-05-04T11:16:55.850Z,32.19
2023-05-04T11:17:55.762Z,31.91
2023-05-04T11:18:55.733Z,33.39
2023-05-04T11:19:55.722Z,33.69
2023-05-04T11:20:55.710Z,36.04
2023-05-04T11:21:55.699Z,32.87
2023-05-04T11:22:55.699Z,32.95
2023-05-04T11:23:55.686Z,32.45
2023-05-04T11:24:56.315Z,31.29
2023-05-04T11:25:55.653Z,33.09
2023-05-04T11:26:55.645Z,34.18
2023-05-04T11:27:55.705Z,32.88
2023-05-04T11:28:55.663Z,32.67
2023-05-04T11:29:55.611Z,33.15
2023-05-04T11:30:56.250Z,33.16
2023-05-04T11:31:55.688Z,33.15
2023-05-04T11:32:55.615Z,32.45
2023-05-04T11:33:55.565Z,30.98
2023-05-04T11:34:55.559Z,31.67
2023-05-04T11:35:55.536Z,33.84
2023-05-04T11:36:55.527Z,32.84
2023-05-04T11:37:55.540Z,31.26
2023-05-04T11:38:55.501Z,32.93
2023-05-04T11:39:55.594Z,32.23
2023-05-04T11:40:55.493Z,32.29
2023-05-04T11:41:55.469Z,31.20
2023-05-04T11:42:56.897Z,30.00
2023-05-04T11:43:55.453Z,31.09
2023-05-04T11:44:55.929Z,30.69
2023-05-04T11:45:55.792Z,29.82
2023-05-04T11:46:55.414Z,31.41
2023-05-04T11:47:55.437Z,30.62
2023-05-04T11:48:55.393Z,31.59
2023-05-04T11:49:55.390Z,30.88
2023-05-04T11:50:55.374Z,30.40
2023-05-04T11:51:55.365Z,30.40
2023-05-04T11:52:55.351Z,30.41
2023-05-04T11:53:55.343Z,30.13
2023-05-04T11:54:55.869Z,29.76
2023-05-04T11:55:55.313Z,30.15
2023-05-04T11:56:55.299Z,31.42
2023-05-04T11:57:55.394Z,29.74
2023-05-04T11:58:55.274Z,30.02
2023-05-04T11:59:55.268Z,30.80
2023-05-04T12:00:56.005Z,28.82
2023-05-04T12:01:55.243Z,29.74
2023-05-04T12:02:55.316Z,31.04
2023-05-04T12:03:55.384Z,31.73
2023-05-04T12:04:55.207Z,30.65
2023-05-04T12:05:55.275Z,30.94
2023-05-04T12:06:55.433Z,30.94
2023-05-04T12:07:55.174Z,30.26
2023-05-04T12:08:55.164Z,31.63
2023-05-04T12:09:55.160Z,32.10
2023-05-04T12:10:55.145Z,30.52
2023-05-04T12:11:55.124Z,29.52
2023-05-04T12:12:55.145Z,31.00
2023-05-04T12:13:55.100Z,33.05
2023-05-04T12:14:55.088Z,31.07
2023-05-04T12:15:55.449Z,30.66
2023-05-04T12:16:55.094Z,30.05
2023-05-04T12:17:55.089Z,29.38
2023-05-04T12:18:55.040Z,29.20
2023-05-04T12:19:55.064Z,30.49
2023-05-04T12:20:55.017Z,30.02
2023-05-04T12:21:55.004Z,30.08
2023-05-04T12:22:55.003Z,30.41
2023-05-04T12:23:54.993Z,29.92
2023-05-04T12:24:54.968Z,30.04
2023-05-04T12:25:58.363Z,28.89
2023-05-04T12:26:54.967Z,30.65
2023-05-04T12:27:54.936Z,29.47
2023-05-04T12:28:54.922Z,29.20
2023-05-04T12:29:54.935Z,30.50
2023-05-04T12:30:54.897Z,30.10
2023-05-04T12:31:54.974Z,30.41
2023-05-04T12:32:54.945Z,30.50
2023-05-04T12:33:54.852Z,31.16
2023-05-04T12:34:54.848Z,31.34
2023-05-04T12:35:54.831Z,29.74
2023-05-04T12:36:54.824Z,29.61
2023-05-04T12:37:54.826Z,29.14
2023-05-04T12:38:54.796Z,28.59
2023-05-04T12:39:54.787Z,29.71
2023-05-04T12:40:54.772Z,29.92
2023-05-04T12:41:54.770Z,30.69
2023-05-04T12:42:54.776Z,29.99
2023-05-04T12:43:54.735Z,29.80
2023-05-04T12:44:54.720Z,31.09
2023-05-04T12:45:54.945Z,30.00
2023-05-04T12:46:54.706Z,29.92
2023-05-04T12:47:54.788Z,29.64
2023-05-04T12:48:54.718Z,30.92
2023-05-04T12:49:54.673Z,32.29
2023-05-04T12:50:54.651Z,30.61
2023-05-04T12:51:54.639Z,31.62